sensor_id;sensor_type;location;lat;lon;timestamp;pressure;altitude;pressure_sealevel;temperature;humidity
71643;BME280;59438;45.014;39.006;2023-05-16T00:01:50;101636.88;;;13.18;69.43
71643;BME280;59438;45.014;39.006;2023-05-16T00:04:16;101645.81;;;13.14;69.92
71643;BME280;59438;45.014;39.006;2023-05-16T00:06:44;101631.13;;;13.06;70.21
71643;BME280;59438;45.014;39.006;2023-05-16T00:09:10;101635.63;;;13.03;70.00
71643;BME280;59438;45.014;39.006;2023-05-16T00:11:36;101633.94;;;13.00;69.92
71643;BME280;59438;45.014;39.006;2023-05-16T00:14:03;101608.13;;;12.83;69.87
71643;BME280;59438;45.014;39.006;2023-05-16T00:16:29;101627.16;;;12.93;70.09
71643;BME280;59438;45.014;39.006;2023-05-16T00:18:56;101623.72;;;12.91;69.99
71643;BME280;59438;45.014;39.006;2023-05-16T00:21:22;101619.44;;;12.87;70.24
71643;BME280;59438;45.014;39.006;2023-05-16T00:23:50;101617.06;;;12.79;71.13
71643;BME280;59438;45.014;39.006;2023-05-16T00:26:16;101620.53;;;12.80;70.53
71643;BME280;59438;45.014;39.006;2023-05-16T00:28:43;101619.84;;;12.75;70.65
71643;BME280;59438;45.014;39.006;2023-05-16T00:31:09;101625.13;;;12.75;70.46
71643;BME280;59438;45.014;39.006;2023-05-16T00:33:36;101620.72;;;12.74;70.50
71643;BME280;59438;45.014;39.006;2023-05-16T00:36:02;101621.75;;;12.69;70.89
71643;BME280;59438;45.014;39.006;2023-05-16T00:38:29;101604.53;;;12.58;70.99
71643;BME280;59438;45.014;39.006;2023-05-16T00:40:56;101620.09;;;12.65;71.74
71643;BME280;59438;45.014;39.006;2023-05-16T00:43:23;101618.47;;;12.61;71.25
71643;BME280;59438;45.014;39.006;2023-05-16T00:45:49;101614.22;;;12.57;71.21
71643;BME280;59438;45.014;39.006;2023-05-16T00:48:16;101626.53;;;12.57;71.10
71643;BME280;59438;45.014;39.006;2023-05-16T00:50:43;101640.69;;;12.54;71.40
71643;BME280;59438;45.014;39.006;2023-05-16T00:53:09;101624.97;;;12.49;71.48
71643;BME280;59438;45.014;39.006;2023-05-16T00:55:37;101631.22;;;12.47;71.54
71643;BME280;59438;45.014;39.006;2023-05-16T00:58:05;101627.72;;;12.46;72.51
71643;BME280;59438;45.014;39.006;2023-05-16T01:00:32;101629.56;;;12.43;71.40
71643;BME280;59438;45.014;39.006;2023-05-16T01:02:58;101631.34;;;12.42;71.88
71643;BME280;59438;45.014;39.006;2023-05-16T01:05:25;101626.25;;;12.38;71.49
71643;BME280;59438;45.014;39.006;2023-05-16T01:07:51;101628.88;;;12.38;71.89
71643;BME280;59438;45.014;39.006;2023-05-16T01:10:18;101629.06;;;12.32;72.07
71643;BME280;59438;45.014;39.006;2023-05-16T01:12:50;101624.59;;;12.34;72.71
71643;BME280;59438;45.014;39.006;2023-05-16T01:15:25;101632.50;;;12.34;73.13
71643;BME280;59438;45.014;39.006;2023-05-16T01:17:58;101631.63;;;12.33;72.76
71643;BME280;59438;45.014;39.006;2023-05-16T01:20:34;101607.53;;;12.17;73.32
71643;BME280;59438;45.014;39.006;2023-05-16T01:23:18;101626.63;;;12.24;74.22
71643;BME280;59438;45.014;39.006;2023-05-16T01:25:56;101631.03;;;12.23;73.36
71643;BME280;59438;45.014;39.006;2023-05-16T01:28:24;101631.22;;;12.17;72.67
71643;BME280;59438;45.014;39.006;2023-05-16T01:30:52;101627.84;;;12.12;72.03
71643;BME280;59438;45.014;39.006;2023-05-16T01:33:19;101630.59;;;12.09;71.93
71643;BME280;59438;45.014;39.006;2023-05-16T01:35:54;101638.56;;;12.06;72.88
71643;BME280;59438;45.014;39.006;2023-05-16T01:38:25;101625.66;;;11.97;72.20
71643;BME280;59438;45.014;39.006;2023-05-16T01:40:54;101631.69;;;12.00;73.12
71643;BME280;59438;45.014;39.006;2023-05-16T01:43:32;101627.41;;;11.96;73.64
71643;BME280;59438;45.014;39.006;2023-05-16T01:46:03;101619.69;;;11.90;73.65
71643;BME280;59438;45.014;39.006;2023-05-16T01:48:37;101628.38;;;11.94;73.32
71643;BME280;59438;45.014;39.006;2023-05-16T01:51:06;101601.59;;;11.78;72.88
71643;BME280;59438;45.014;39.006;2023-05-16T01:53:36;101622.31;;;11.90;73.44
71643;BME280;59438;45.014;39.006;2023-05-16T01:56:05;101611.88;;;11.85;72.56
71643;BME280;59438;45.014;39.006;2023-05-16T01:58:36;101612.00;;;11.82;73.83
71643;BME280;59438;45.014;39.006;2023-05-16T02:01:04;101616.34;;;11.83;73.16
71643;BME280;59438;45.014;39.006;2023-05-16T02:03:31;101609.34;;;11.82;72.50
71643;BME280;59438;45.014;39.006;2023-05-16T02:05:57;101609.38;;;11.81;72.84
71643;BME280;59438;45.014;39.006;2023-05-16T02:08:24;101605.09;;;11.78;72.70
71643;BME280;59438;45.014;39.006;2023-05-16T02:10:50;101609.38;;;11.81;72.74
71643;BME280;59438;45.014;39.006;2023-05-16T02:13:17;101612.94;;;11.80;72.88
71643;BME280;59438;45.014;39.006;2023-05-16T02:15:45;101599.97;;;11.74;74.02
71643;BME280;59438;45.014;39.006;2023-05-16T02:18:11;101612.88;;;11.81;72.66
71643;BME280;59438;45.014;39.006;2023-05-16T02:20:37;101606.06;;;11.74;72.91
71643;BME280;59438;45.014;39.006;2023-05-16T02:23:04;101609.66;;;11.72;73.09
71643;BME280;59438;45.014;39.006;2023-05-16T02:25:30;101613.94;;;11.76;73.22
71643;BME280;59438;45.014;39.006;2023-05-16T02:27:56;101612.13;;;11.78;73.71
71643;BME280;59438;45.014;39.006;2023-05-16T02:30:23;101610.38;;;11.77;72.83
71643;BME280;59438;45.014;39.006;2023-05-16T02:32:51;101615.66;;;11.77;74.03
71643;BME280;59438;45.014;39.006;2023-05-16T02:35:17;101607.78;;;11.75;73.48
71643;BME280;59438;45.014;39.006;2023-05-16T02:37:43;101612.94;;;11.80;73.46
71643;BME280;59438;45.014;39.006;2023-05-16T02:40:10;101603.56;;;11.69;73.15
71643;BME280;59438;45.014;39.006;2023-05-16T02:42:37;101592.09;;;11.72;73.30
71643;BME280;59438;45.014;39.006;2023-05-16T02:45:04;101613.66;;;11.85;73.93
71643;BME280;59438;45.014;39.006;2023-05-16T02:47:30;101605.72;;;11.86;73.62
71643;BME280;59438;45.014;39.006;2023-05-16T02:49:58;101619.75;;;11.88;73.63
71643;BME280;59438;45.014;39.006;2023-05-16T02:52:24;101612.59;;;11.92;73.20
71643;BME280;59438;45.014;39.006;2023-05-16T02:54:51;101615.19;;;11.94;73.75
71643;BME280;59438;45.014;39.006;2023-05-16T02:57:17;101616.84;;;11.98;73.54
71643;BME280;59438;45.014;39.006;2023-05-16T02:59:43;101624.66;;;12.01;73.90
71643;BME280;59438;45.014;39.006;2023-05-16T03:02:10;101629.75;;;12.07;73.48
71643;BME280;59438;45.014;39.006;2023-05-16T03:04:36;101634.16;;;12.06;74.15
71643;BME280;59438;45.014;39.006;2023-05-16T03:07:04;101633.03;;;12.15;74.33
71643;BME280;59438;45.014;39.006;2023-05-16T03:09:30;101623.41;;;12.14;73.58
71643;BME280;59438;45.014;39.006;2023-05-16T03:11:57;101624.16;;;12.19;74.01
71643;BME280;59438;45.014;39.006;2023-05-16T03:14:23;101617.13;;;12.18;73.62
71643;BME280;59438;45.014;39.006;2023-05-16T03:16:49;101639.53;;;12.33;73.63
71643;BME280;59438;45.014;39.006;2023-05-16T03:19:16;101630.69;;;12.36;73.75
71643;BME280;59438;45.014;39.006;2023-05-16T03:21:42;101633.88;;;12.45;73.49
71643;BME280;59438;45.014;39.006;2023-05-16T03:24:10;101635.59;;;12.48;74.12
71643;BME280;59438;45.014;39.006;2023-05-16T03:26:36;101630.06;;;12.56;73.61
71643;BME280;59438;45.014;39.006;2023-05-16T03:29:02;101632.63;;;12.59;73.54
71643;BME280;59438;45.014;39.006;2023-05-16T03:31:29;101642.97;;;12.65;73.65
71643;BME280;59438;45.014;39.006;2023-05-16T03:33:56;101629.94;;;12.60;73.51
71643;BME280;59438;45.014;39.006;2023-05-16T03:36:23;101639.22;;;12.72;73.36
71643;BME280;59438;45.014;39.006;2023-05-16T03:38:49;101636.75;;;12.67;73.39
71643;BME280;59438;45.014;39.006;2023-05-16T03:41:17;101645.94;;;12.82;73.63
71643;BME280;59438;45.014;39.006;2023-05-16T03:43:43;101638.97;;;12.81;73.09
71643;BME280;59438;45.014;39.006;2023-05-16T03:46:10;101652.72;;;12.91;72.87
71643;BME280;59438;45.014;39.006;2023-05-16T03:48:36;101645.50;;;12.96;72.89
71643;BME280;59438;45.014;39.006;2023-05-16T03:51:02;101625.63;;;12.86;72.73
71643;BME280;59438;45.014;39.006;2023-05-16T03:53:29;101636.59;;;13.00;72.60
71643;BME280;59438;45.014;39.006;2023-05-16T03:55:55;101657.44;;;13.08;72.61
71643;BME280;59438;45.014;39.006;2023-05-16T03:58:23;101650.31;;;13.12;72.87
71643;BME280;59438;45.014;39.006;2023-05-16T04:00:49;101648.41;;;13.15;72.68
71643;BME280;59438;45.014;39.006;2023-05-16T04:03:16;101625.75;;;13.09;72.41
71643;BME280;59438;45.014;39.006;2023-05-16T04:05:42;101647.44;;;13.18;72.62
71643;BME280;59438;45.014;39.006;2023-05-16T04:08:08;101647.22;;;13.24;72.49
71643;BME280;59438;45.014;39.006;2023-05-16T04:10:35;101658.50;;;13.30;72.44
71643;BME280;59438;45.014;39.006;2023-05-16T04:13:01;101661.84;;;13.36;72.30
71643;BME280;59438;45.014;39.006;2023-05-16T04:15:29;101663.38;;;13.43;72.55
71643;BME280;59438;45.014;39.006;2023-05-16T04:17:55;101662.28;;;13.48;72.11
71643;BME280;59438;45.014;39.006;2023-05-16T04:20:21;101668.28;;;13.54;72.41
71643;BME280;59438;45.014;39.006;2023-05-16T04:22:48;101665.44;;;13.60;72.21
71643;BME280;59438;45.014;39.006;2023-05-16T04:25:14;101669.69;;;13.64;72.24
71643;BME280;59438;45.014;39.006;2023-05-16T04:27:40;101659.09;;;13.65;72.14
71643;BME280;59438;45.014;39.006;2023-05-16T04:30:08;101664.88;;;13.75;71.49
71643;BME280;59438;45.014;39.006;2023-05-16T04:32:36;101668.13;;;13.83;71.90
71643;BME280;59438;45.014;39.006;2023-05-16T04:35:03;101658.25;;;13.88;71.64
71643;BME280;59438;45.014;39.006;2023-05-16T04:37:29;101666.72;;;13.98;71.33
71643;BME280;59438;45.014;39.006;2023-05-16T04:39:55;101646.31;;;14.02;70.99
71643;BME280;59438;45.014;39.006;2023-05-16T04:42:22;101651.25;;;14.13;70.72
71643;BME280;59438;45.014;39.006;2023-05-16T04:44:48;101640.50;;;14.17;70.93
71643;BME280;59438;45.014;39.006;2023-05-16T04:47:14;101640.38;;;14.20;70.52
71643;BME280;59438;45.014;39.006;2023-05-16T04:49:42;101657.13;;;14.43;70.94
71643;BME280;59438;45.014;39.006;2023-05-16T04:52:08;101660.25;;;14.54;70.38
71643;BME280;59438;45.014;39.006;2023-05-16T04:54:36;101659.88;;;14.65;70.21
71643;BME280;59438;45.014;39.006;2023-05-16T04:57:03;101659.44;;;14.76;70.28
71643;BME280;59438;45.014;39.006;2023-05-16T04:59:29;101654.66;;;14.85;69.62
71643;BME280;59438;45.014;39.006;2023-05-16T05:01:56;101650.66;;;14.97;69.62
71643;BME280;59438;45.014;39.006;2023-05-16T05:04:23;101665.03;;;15.12;69.38
71643;BME280;59438;45.014;39.006;2023-05-16T05:06:51;101661.03;;;15.24;69.39
71643;BME280;59438;45.014;39.006;2023-05-16T05:09:17;101663.25;;;15.35;68.63
71643;BME280;59438;45.014;39.006;2023-05-16T05:11:43;101666.16;;;15.49;68.94
71643;BME280;59438;45.014;39.006;2023-05-16T05:14:10;101644.97;;;15.49;68.50
71643;BME280;59438;45.014;39.006;2023-05-16T05:16:36;101672.16;;;15.75;68.16
71643;BME280;59438;45.014;39.006;2023-05-16T05:19:02;101664.47;;;15.89;67.77
71643;BME280;59438;45.014;39.006;2023-05-16T05:21:29;101659.31;;;16.25;67.62
71643;BME280;59438;45.014;39.006;2023-05-16T05:23:56;101672.28;;;17.25;66.50
71643;BME280;59438;45.014;39.006;2023-05-16T05:26:23;101671.94;;;18.51;64.96
71643;BME280;59438;45.014;39.006;2023-05-16T05:28:49;101679.41;;;19.69;62.25
71643;BME280;59438;45.014;39.006;2023-05-16T05:31:15;101677.22;;;20.63;59.77
71643;BME280;59438;45.014;39.006;2023-05-16T05:33:42;101673.47;;;21.47;57.87
71643;BME280;59438;45.014;39.006;2023-05-16T05:36:08;101662.41;;;22.18;56.17
71643;BME280;59438;45.014;39.006;2023-05-16T05:38:35;101667.72;;;22.80;54.44
71643;BME280;59438;45.014;39.006;2023-05-16T05:41:02;101667.91;;;23.14;52.75
71643;BME280;59438;45.014;39.006;2023-05-16T05:43:29;101670.56;;;23.27;53.23
71643;BME280;59438;45.014;39.006;2023-05-16T05:45:55;101660.78;;;23.26;52.78
71643;BME280;59438;45.014;39.006;2023-05-16T05:48:21;101663.91;;;23.08;52.69
71643;BME280;59438;45.014;39.006;2023-05-16T05:50:48;101659.06;;;22.77;53.12
71643;BME280;59438;45.014;39.006;2023-05-16T05:53:14;101643.09;;;22.51;53.00
71643;BME280;59438;45.014;39.006;2023-05-16T05:55:41;101663.00;;;22.47;53.15
71643;BME280;59438;45.014;39.006;2023-05-16T05:58:08;101652.97;;;22.38;52.45
71643;BME280;59438;45.014;39.006;2023-05-16T06:00:35;101660.06;;;22.26;52.83
71643;BME280;59438;45.014;39.006;2023-05-16T06:03:01;101660.03;;;22.13;53.57
71643;BME280;59438;45.014;39.006;2023-05-16T06:05:28;101655.97;;;21.94;53.92
71643;BME280;59438;45.014;39.006;2023-05-16T06:07:54;101648.38;;;21.76;53.97
71643;BME280;59438;45.014;39.006;2023-05-16T06:10:20;101656.50;;;21.74;53.84
71643;BME280;59438;45.014;39.006;2023-05-16T06:12:47;101667.94;;;21.63;53.83
71643;BME280;59438;45.014;39.006;2023-05-16T06:15:14;101662.91;;;21.46;52.90
71643;BME280;59438;45.014;39.006;2023-05-16T06:17:41;101671.16;;;21.28;54.03
71643;BME280;59438;45.014;39.006;2023-05-16T06:20:08;101654.00;;;21.05;54.39
71643;BME280;59438;45.014;39.006;2023-05-16T06:22:34;101660.81;;;20.97;54.53
71643;BME280;59438;45.014;39.006;2023-05-16T06:25:00;101667.03;;;20.83;54.81
71643;BME280;59438;45.014;39.006;2023-05-16T06:27:27;101647.28;;;20.58;54.72
71643;BME280;59438;45.014;39.006;2023-05-16T06:29:53;101646.97;;;20.48;55.12
71643;BME280;59438;45.014;39.006;2023-05-16T06:32:21;101644.81;;;20.41;55.08
71643;BME280;59438;45.014;39.006;2023-05-16T06:34:47;101641.94;;;20.29;55.17
71643;BME280;59438;45.014;39.006;2023-05-16T06:37:14;101647.66;;;20.23;55.63
71643;BME280;59438;45.014;39.006;2023-05-16T06:39:40;101647.22;;;20.17;55.64
71643;BME280;59438;45.014;39.006;2023-05-16T06:42:06;101651.19;;;20.09;55.43
71643;BME280;59438;45.014;39.006;2023-05-16T06:44:33;101644.25;;;20.07;55.45
71643;BME280;59438;45.014;39.006;2023-05-16T06:46:59;101638.16;;;20.05;55.74
71643;BME280;59438;45.014;39.006;2023-05-16T06:49:27;101644.63;;;20.01;54.91
71643;BME280;59438;45.014;39.006;2023-05-16T06:51:53;101650.72;;;20.03;55.96
71643;BME280;59438;45.014;39.006;2023-05-16T06:54:19;101656.06;;;20.03;55.74
71643;BME280;59438;45.014;39.006;2023-05-16T06:56:46;101649.78;;;20.04;54.94
71643;BME280;59438;45.014;39.006;2023-05-16T06:59:12;101649.50;;;20.08;54.81
71643;BME280;59438;45.014;39.006;2023-05-16T07:01:38;101640.44;;;20.11;54.97
71643;BME280;59438;45.014;39.006;2023-05-16T07:04:05;101636.53;;;20.17;55.04
71643;BME280;59438;45.014;39.006;2023-05-16T07:06:32;101637.09;;;20.22;53.59
71643;BME280;59438;45.014;39.006;2023-05-16T07:08:59;101635.84;;;20.27;54.27
71643;BME280;59438;45.014;39.006;2023-05-16T07:11:25;101632.50;;;20.38;54.36
71643;BME280;59438;45.014;39.006;2023-05-16T07:13:51;101631.25;;;20.44;54.41
71643;BME280;59438;45.014;39.006;2023-05-16T07:16:18;101629.03;;;20.50;53.90
71643;BME280;59438;45.014;39.006;2023-05-16T07:18:44;101629.72;;;20.54;54.06
71643;BME280;59438;45.014;39.006;2023-05-16T07:21:10;101630.47;;;20.56;54.29
71643;BME280;59438;45.014;39.006;2023-05-16T07:23:39;101633.84;;;20.60;53.22
71643;BME280;59438;45.014;39.006;2023-05-16T07:26:06;101626.50;;;20.63;53.82
71643;BME280;59438;45.014;39.006;2023-05-16T07:28:32;101629.81;;;20.67;53.95
71643;BME280;59438;45.014;39.006;2023-05-16T07:30:58;101634.88;;;20.71;53.59
71643;BME280;59438;45.014;39.006;2023-05-16T07:33:25;101631.56;;;20.81;53.94
71643;BME280;59438;45.014;39.006;2023-05-16T07:35:51;101634.41;;;20.92;54.17
71643;BME280;59438;45.014;39.006;2023-05-16T07:38:18;101641.03;;;20.99;53.55
71643;BME280;59438;45.014;39.006;2023-05-16T07:40:46;101638.91;;;21.04;52.86
71643;BME280;59438;45.014;39.006;2023-05-16T07:43:12;101634.31;;;21.06;53.21
71643;BME280;59438;45.014;39.006;2023-05-16T07:45:38;101634.03;;;21.11;52.91
71643;BME280;59438;45.014;39.006;2023-05-16T07:48:05;101625.91;;;21.12;53.19
71643;BME280;59438;45.014;39.006;2023-05-16T07:50:31;101634.56;;;21.16;53.11
71643;BME280;59438;45.014;39.006;2023-05-16T07:52:58;101635.31;;;21.18;52.50
71643;BME280;59438;45.014;39.006;2023-05-16T07:55:24;101637.81;;;21.21;52.80
71643;BME280;59438;45.014;39.006;2023-05-16T07:57:52;101630.66;;;21.22;51.83
71643;BME280;59438;45.014;39.006;2023-05-16T08:00:19;101621.56;;;21.24;52.10
71643;BME280;59438;45.014;39.006;2023-05-16T08:02:46;101628.09;;;21.33;52.38
71643;BME280;59438;45.014;39.006;2023-05-16T08:05:12;101632.16;;;21.39;52.26
71643;BME280;59438;45.014;39.006;2023-05-16T08:07:39;101630.84;;;21.46;51.99
71643;BME280;59438;45.014;39.006;2023-05-16T08:10:06;101627.00;;;21.50;51.57
71643;BME280;59438;45.014;39.006;2023-05-16T08:12:32;101619.41;;;21.57;51.89
71643;BME280;59438;45.014;39.006;2023-05-16T08:15:00;101628.69;;;21.64;51.32
71643;BME280;59438;45.014;39.006;2023-05-16T08:17:26;101624.66;;;21.71;51.12
71643;BME280;59438;45.014;39.006;2023-05-16T08:19:53;101619.81;;;21.76;50.61
71643;BME280;59438;45.014;39.006;2023-05-16T08:22:19;101618.63;;;21.80;50.07
71643;BME280;59438;45.014;39.006;2023-05-16T08:24:45;101618.13;;;21.88;49.67
71643;BME280;59438;45.014;39.006;2023-05-16T08:27:12;101610.41;;;21.96;49.17
71643;BME280;59438;45.014;39.006;2023-05-16T08:29:38;101617.16;;;22.02;49.14
71643;BME280;59438;45.014;39.006;2023-05-16T08:32:07;101608.69;;;22.08;48.90
71643;BME280;59438;45.014;39.006;2023-05-16T08:34:34;101617.97;;;22.15;48.86
71643;BME280;59438;45.014;39.006;2023-05-16T08:37:00;101614.00;;;22.21;48.44
71643;BME280;59438;45.014;39.006;2023-05-16T08:39:26;101605.81;;;22.24;48.63
71643;BME280;59438;45.014;39.006;2023-05-16T08:41:53;101608.03;;;22.30;48.58
71643;BME280;59438;45.014;39.006;2023-05-16T08:44:19;101605.03;;;22.35;48.42
71643;BME280;59438;45.014;39.006;2023-05-16T08:46:50;101590.16;;;22.30;47.37
71643;BME280;59438;45.014;39.006;2023-05-16T08:49:18;101599.66;;;22.35;46.42
71643;BME280;59438;45.014;39.006;2023-05-16T08:51:47;101603.69;;;22.40;47.23
71643;BME280;59438;45.014;39.006;2023-05-16T08:54:14;101602.00;;;22.39;47.42
71643;BME280;59438;45.014;39.006;2023-05-16T08:56:43;101602.94;;;22.38;47.58
71643;BME280;59438;45.014;39.006;2023-05-16T08:59:10;101597.50;;;22.40;47.87
71643;BME280;59438;45.014;39.006;2023-05-16T09:01:36;101579.94;;;22.36;47.92
71643;BME280;59438;45.014;39.006;2023-05-16T09:04:06;101591.47;;;22.49;47.58
71643;BME280;59438;45.014;39.006;2023-05-16T09:06:34;101591.97;;;22.54;47.30
71643;BME280;59438;45.014;39.006;2023-05-16T09:09:01;101582.00;;;22.56;47.46
71643;BME280;59438;45.014;39.006;2023-05-16T09:11:27;101587.03;;;22.61;46.97
71643;BME280;59438;45.014;39.006;2023-05-16T09:13:54;101582.94;;;22.68;46.38
71643;BME280;59438;45.014;39.006;2023-05-16T09:16:20;101582.59;;;22.72;46.70
71643;BME280;59438;45.014;39.006;2023-05-16T09:18:53;101557.25;;;22.65;44.85
71643;BME280;59438;45.014;39.006;2023-05-16T09:21:20;101576.09;;;22.88;46.67
71643;BME280;59438;45.014;39.006;2023-05-16T09:23:49;101571.34;;;22.91;44.59
71643;BME280;59438;45.014;39.006;2023-05-16T09:26:15;101561.03;;;22.98;45.83
71643;BME280;59438;45.014;39.006;2023-05-16T09:28:42;101571.91;;;23.08;45.57
71643;BME280;59438;45.014;39.006;2023-05-16T09:31:19;101562.56;;;23.13;44.30
71643;BME280;59438;45.014;39.006;2023-05-16T09:33:46;101560.72;;;23.14;45.57
71643;BME280;59438;45.014;39.006;2023-05-16T09:36:12;101558.78;;;23.16;45.65
71643;BME280;59438;45.014;39.006;2023-05-16T09:38:38;101573.19;;;23.26;44.89
71643;BME280;59438;45.014;39.006;2023-05-16T09:41:08;101568.34;;;23.31;44.28
71643;BME280;59438;45.014;39.006;2023-05-16T09:43:37;101568.22;;;23.33;43.94
71643;BME280;59438;45.014;39.006;2023-05-16T09:46:04;101569.97;;;23.45;43.87
71643;BME280;59438;45.014;39.006;2023-05-16T09:48:31;101565.81;;;23.52;44.04
71643;BME280;59438;45.014;39.006;2023-05-16T09:50:58;101571.69;;;23.58;44.11
71643;BME280;59438;45.014;39.006;2023-05-16T09:53:25;101559.84;;;23.60;43.99
71643;BME280;59438;45.014;39.006;2023-05-16T09:55:59;101557.75;;;23.64;43.06
71643;BME280;59438;45.014;39.006;2023-05-16T09:58:29;101560.94;;;23.69;41.65
71643;BME280;59438;45.014;39.006;2023-05-16T10:00:56;101556.19;;;23.72;42.84
71643;BME280;59438;45.014;39.006;2023-05-16T10:03:24;101551.34;;;23.78;41.67
71643;BME280;59438;45.014;39.006;2023-05-16T10:05:51;101553.41;;;23.85;41.60
71643;BME280;59438;45.014;39.006;2023-05-16T10:08:19;101549.97;;;23.94;39.96
71643;BME280;59438;45.014;39.006;2023-05-16T10:10:50;101528.16;;;23.88;40.79
71643;BME280;59438;45.014;39.006;2023-05-16T10:13:17;101550.09;;;24.04;41.18
71643;BME280;59438;45.014;39.006;2023-05-16T10:15:46;101547.31;;;24.06;40.54
71643;BME280;59438;45.014;39.006;2023-05-16T10:18:13;101533.16;;;24.04;41.02
71643;BME280;59438;45.014;39.006;2023-05-16T10:20:43;101549.38;;;24.13;40.31
71643;BME280;59438;45.014;39.006;2023-05-16T10:23:14;101535.81;;;24.15;39.39
71643;BME280;59438;45.014;39.006;2023-05-16T10:25:41;101532.50;;;24.23;40.67
71643;BME280;59438;45.014;39.006;2023-05-16T10:28:09;101539.66;;;24.33;40.30
71643;BME280;59438;45.014;39.006;2023-05-16T10:30:39;101505.53;;;24.24;39.43
71643;BME280;59438;45.014;39.006;2023-05-16T10:33:07;101536.13;;;24.44;39.87
71643;BME280;59438;45.014;39.006;2023-05-16T10:35:34;101527.69;;;24.49;40.42
71643;BME280;59438;45.014;39.006;2023-05-16T10:38:01;101523.53;;;24.56;40.68
71643;BME280;59438;45.014;39.006;2023-05-16T10:40:28;101528.75;;;24.69;40.28
71643;BME280;59438;45.014;39.006;2023-05-16T10:42:55;101526.50;;;24.74;40.67
71643;BME280;59438;45.014;39.006;2023-05-16T10:45:23;101507.25;;;24.69;39.96
71643;BME280;59438;45.014;39.006;2023-05-16T10:47:53;101510.66;;;24.71;39.94
71643;BME280;59438;45.014;39.006;2023-05-16T10:50:35;101520.00;;;24.77;40.38
71643;BME280;59438;45.014;39.006;2023-05-16T10:53:15;101487.56;;;24.68;39.76
71643;BME280;59438;45.014;39.006;2023-05-16T10:55:50;101506.56;;;24.77;40.08
71643;BME280;59438;45.014;39.006;2023-05-16T10:58:42;101515.72;;;24.85;39.24
71643;BME280;59438;45.014;39.006;2023-05-16T11:01:20;101517.31;;;24.98;39.51
71643;BME280;59438;45.014;39.006;2023-05-16T11:04:00;101510.78;;;25.11;39.87
71643;BME280;59438;45.014;39.006;2023-05-16T11:06:29;101505.88;;;25.17;39.57
71643;BME280;59438;45.014;39.006;2023-05-16T11:09:03;101497.81;;;25.17;39.55
71643;BME280;59438;45.014;39.006;2023-05-16T11:11:41;101515.91;;;25.14;39.29
71643;BME280;59438;45.014;39.006;2023-05-16T11:14:08;101511.44;;;25.04;39.63
71643;BME280;59438;45.014;39.006;2023-05-16T11:16:34;101489.88;;;24.94;39.06
71643;BME280;59438;45.014;39.006;2023-05-16T11:19:04;101493.75;;;25.01;38.22
71643;BME280;59438;45.014;39.006;2023-05-16T11:22:09;101498.41;;;24.99;38.92
71643;BME280;59438;45.014;39.006;2023-05-16T11:24:37;101511.19;;;24.86;38.77
71643;BME280;59438;45.014;39.006;2023-05-16T11:27:04;101490.78;;;24.62;39.88
71643;BME280;59438;45.014;39.006;2023-05-16T11:29:31;101490.84;;;24.51;40.16
71643;BME280;59438;45.014;39.006;2023-05-16T11:31:58;101490.09;;;24.38;40.19
71643;BME280;59438;45.014;39.006;2023-05-16T11:34:24;101484.63;;;24.39;39.87
71643;BME280;59438;45.014;39.006;2023-05-16T11:36:51;101487.41;;;24.49;40.46
71643;BME280;59438;45.014;39.006;2023-05-16T11:39:19;101476.63;;;24.60;39.57
71643;BME280;59438;45.014;39.006;2023-05-16T11:41:45;101479.66;;;24.67;39.48
71643;BME280;59438;45.014;39.006;2023-05-16T11:44:11;101464.47;;;24.77;38.05
71643;BME280;59438;45.014;39.006;2023-05-16T11:46:38;101469.88;;;24.87;37.68
71643;BME280;59438;45.014;39.006;2023-05-16T11:49:05;101456.94;;;24.92;37.67
71643;BME280;59438;45.014;39.006;2023-05-16T11:51:31;101458.28;;;25.07;38.36
71643;BME280;59438;45.014;39.006;2023-05-16T11:53:58;101458.22;;;25.19;37.49
71643;BME280;59438;45.014;39.006;2023-05-16T11:56:26;101453.88;;;25.27;35.77
71643;BME280;59438;45.014;39.006;2023-05-16T11:58:52;101457.88;;;25.33;36.16
71643;BME280;59438;45.014;39.006;2023-05-16T12:01:19;101458.78;;;25.43;36.52
71643;BME280;59438;45.014;39.006;2023-05-16T12:03:53;101452.25;;;25.46;35.91
71643;BME280;59438;45.014;39.006;2023-05-16T12:06:20;101446.16;;;25.44;36.78
71643;BME280;59438;45.014;39.006;2023-05-16T12:08:49;101444.06;;;25.47;36.55
71643;BME280;59438;45.014;39.006;2023-05-16T12:11:16;101444.50;;;25.52;37.11
71643;BME280;59438;45.014;39.006;2023-05-16T12:13:44;101446.06;;;25.55;36.14
71643;BME280;59438;45.014;39.006;2023-05-16T12:16:11;101436.88;;;25.58;36.68
71643;BME280;59438;45.014;39.006;2023-05-16T12:18:38;101430.25;;;25.62;36.44
71643;BME280;59438;45.014;39.006;2023-05-16T12:21:04;101445.28;;;25.74;36.32
71643;BME280;59438;45.014;39.006;2023-05-16T12:23:32;101440.31;;;25.79;35.49
71643;BME280;59438;45.014;39.006;2023-05-16T12:25:59;101435.22;;;25.76;35.51
71643;BME280;59438;45.014;39.006;2023-05-16T12:28:29;101436.13;;;25.96;34.72
71643;BME280;59438;45.014;39.006;2023-05-16T12:30:58;101428.78;;;25.98;34.96
71643;BME280;59438;45.014;39.006;2023-05-16T12:33:24;101433.47;;;26.06;36.33
71643;BME280;59438;45.014;39.006;2023-05-16T12:35:52;101431.75;;;26.14;35.59
71643;BME280;59438;45.014;39.006;2023-05-16T12:38:19;101427.41;;;26.23;35.08
71643;BME280;59438;45.014;39.006;2023-05-16T12:40:46;101422.28;;;26.20;34.85
71643;BME280;59438;45.014;39.006;2023-05-16T12:43:13;101432.06;;;26.21;35.57